sensor_id;sensor_type;location;lat;lon;timestamp;pressure;altitude;pressure_sealevel;temperature;humidity
15884;BME280;8040;50.254;10.960;2023-05-08T00:01:25;98630.34;;;13.60;61.96
15884;BME280;8040;50.254;10.960;2023-05-08T00:03:51;98654.16;;;13.90;61.72
15884;BME280;8040;50.254;10.960;2023-05-08T00:06:16;98658.41;;;13.82;61.51
15884;BME280;8040;50.254;10.960;2023-05-08T00:08:41;98669.50;;;13.86;61.75
15884;BME280;8040;50.254;10.960;2023-05-08T00:11:07;98671.25;;;13.60;62.36
15884;BME280;8040;50.254;10.960;2023-05-08T00:13:32;98669.16;;;13.79;62.33
15884;BME280;8040;50.254;10.960;2023-05-08T00:15:58;98659.66;;;13.76;61.97
15884;BME280;8040;50.254;10.960;2023-05-08T00:18:23;98630.25;;;13.65;62.00
15884;BME280;8040;50.254;10.960;2023-05-08T00:20:48;98676.84;;;13.99;61.48
15884;BME280;8040;50.254;10.960;2023-05-08T00:23:14;98676.22;;;13.80;61.51
15884;BME280;8040;50.254;10.960;2023-05-08T00:25:39;98650.25;;;13.82;61.34
15884;BME280;8040;50.254;10.960;2023-05-08T00:28:05;98695.66;;;14.09;61.11
15884;BME280;8040;50.254;10.960;2023-05-08T00:30:30;98700.69;;;14.15;61.13
15884;BME280;8040;50.254;10.960;2023-05-08T00:32:55;98675.47;;;13.88;60.69
15884;BME280;8040;50.254;10.960;2023-05-08T00:35:21;98677.59;;;13.69;61.48
15884;BME280;8040;50.254;10.960;2023-05-08T00:37:46;98658.19;;;13.48;61.64
15884;BME280;8040;50.254;10.960;2023-05-08T00:40:12;98683.94;;;13.64;61.82
15884;BME280;8040;50.254;10.960;2023-05-08T00:42:38;98700.25;;;13.78;61.79
15884;BME280;8040;50.254;10.960;2023-05-08T00:45:04;98682.97;;;13.60;61.47
15884;BME280;8040;50.254;10.960;2023-05-08T00:47:30;98686.13;;;13.76;61.73
15884;BME280;8040;50.254;10.960;2023-05-08T00:49:58;98677.63;;;13.55;61.71
15884;BME280;8040;50.254;10.960;2023-05-08T00:52:24;98680.75;;;13.49;61.71
15884;BME280;8040;50.254;10.960;2023-05-08T00:54:50;98697.44;;;13.47;62.23
15884;BME280;8040;50.254;10.960;2023-05-08T00:57:16;98633.75;;;12.94;62.47
15884;BME280;8040;50.254;10.960;2023-05-08T00:59:43;98693.13;;;13.33;62.61
15884;BME280;8040;50.254;10.960;2023-05-08T01:02:10;98682.88;;;13.16;63.01
15884;BME280;8040;50.254;10.960;2023-05-08T01:04:35;98666.06;;;13.01;62.85
15884;BME280;8040;50.254;10.960;2023-05-08T01:07:02;98670.19;;;12.98;63.19
15884;BME280;8040;50.254;10.960;2023-05-08T01:09:27;98669.69;;;12.96;63.15
15884;BME280;8040;50.254;10.960;2023-05-08T01:17:28;98694.47;;;13.08;63.00
15884;BME280;8040;50.254;10.960;2023-05-08T01:23:34;98714.75;;;12.89;63.79
15884;BME280;8040;50.254;10.960;2023-05-08T01:34:43;98721.31;;;13.01;63.13
15884;BME280;8040;50.254;10.960;2023-05-08T01:37:14;98716.34;;;12.90;63.09
15884;BME280;8040;50.254;10.960;2023-05-08T01:39:59;98714.66;;;12.80;63.14
15884;BME280;8040;50.254;10.960;2023-05-08T01:45:21;98697.78;;;12.92;63.28
15884;BME280;8040;50.254;10.960;2023-05-08T01:47:57;98709.31;;;13.16;63.06
15884;BME280;8040;50.254;10.960;2023-05-08T01:50:30;98693.44;;;13.18;62.18
15884;BME280;8040;50.254;10.960;2023-05-08T01:52:59;98727.22;;;13.44;62.33
15884;BME280;8040;50.254;10.960;2023-05-08T01:55:30;98731.31;;;13.55;62.12
15884;BME280;8040;50.254;10.960;2023-05-08T01:57:58;98704.91;;;13.42;61.80
15884;BME280;8040;50.254;10.960;2023-05-08T02:00:26;98693.34;;;13.36;61.43
15884;BME280;8040;50.254;10.960;2023-05-08T02:02:56;98695.13;;;13.41;61.28
15884;BME280;8040;50.254;10.960;2023-05-08T02:05:23;98721.78;;;13.44;61.02
15884;BME280;8040;50.254;10.960;2023-05-08T02:07:50;98710.88;;;13.44;60.66
15884;BME280;8040;50.254;10.960;2023-05-08T02:10:16;98693.25;;;13.28;60.91
15884;BME280;8040;50.254;10.960;2023-05-08T02:12:43;98699.22;;;13.16;60.81
15884;BME280;8040;50.254;10.960;2023-05-08T02:15:11;98705.91;;;12.97;60.72
15884;BME280;8040;50.254;10.960;2023-05-08T02:17:38;98690.94;;;12.94;61.10
15884;BME280;8040;50.254;10.960;2023-05-08T02:20:05;98697.72;;;12.97;61.08
15884;BME280;8040;50.254;10.960;2023-05-08T02:22:32;98705.75;;;12.75;61.20
15884;BME280;8040;50.254;10.960;2023-05-08T02:25:00;98722.78;;;12.67;62.20
15884;BME280;8040;50.254;10.960;2023-05-08T02:27:27;98727.63;;;12.70;62.63
15884;BME280;8040;50.254;10.960;2023-05-08T02:29:54;98707.22;;;12.40;62.86
15884;BME280;8040;50.254;10.960;2023-05-08T02:32:20;98721.00;;;12.62;63.00
15884;BME280;8040;50.254;10.960;2023-05-08T02:34:49;98677.28;;;12.27;63.29
15884;BME280;8040;50.254;10.960;2023-05-08T02:37:18;98708.84;;;12.41;63.39
15884;BME280;8040;50.254;10.960;2023-05-08T02:39:46;98630.84;;;11.78;63.69
15884;BME280;8040;50.254;10.960;2023-05-08T02:42:12;98716.88;;;12.33;63.97
15884;BME280;8040;50.254;10.960;2023-05-08T02:44:38;98708.06;;;12.41;63.51
15884;BME280;8040;50.254;10.960;2023-05-08T02:47:30;98738.75;;;12.73;63.60
15884;BME280;8040;50.254;10.960;2023-05-08T02:50:08;98707.88;;;12.64;63.18
15884;BME280;8040;50.254;10.960;2023-05-08T02:52:43;98714.31;;;12.82;63.01
15884;BME280;8040;50.254;10.960;2023-05-08T02:55:21;98741.78;;;12.99;62.14
15884;BME280;8040;50.254;10.960;2023-05-08T02:57:56;98747.84;;;12.96;62.15
15884;BME280;8040;50.254;10.960;2023-05-08T03:00:31;98712.31;;;12.74;62.27
15884;BME280;8040;50.254;10.960;2023-05-08T03:03:12;98737.22;;;12.81;62.23
15884;BME280;8040;50.254;10.960;2023-05-08T03:05:42;98742.06;;;12.84;61.96
15884;BME280;8040;50.254;10.960;2023-05-08T03:08:18;98735.13;;;12.78;61.78
15884;BME280;8040;50.254;10.960;2023-05-08T03:10:48;98706.25;;;12.50;61.86
15884;BME280;8040;50.254;10.960;2023-05-08T03:13:17;98687.88;;;12.28;61.60
15884;BME280;8040;50.254;10.960;2023-05-08T03:15:58;98710.44;;;12.29;62.17
15884;BME280;8040;50.254;10.960;2023-05-08T03:18:58;98742.13;;;12.52;62.51
15884;BME280;8040;50.254;10.960;2023-05-08T03:21:27;98725.03;;;12.33;62.17
15884;BME280;8040;50.254;10.960;2023-05-08T03:23:53;98732.28;;;12.24;62.73
15884;BME280;8040;50.254;10.960;2023-05-08T03:26:20;98700.13;;;12.12;62.91
15884;BME280;8040;50.254;10.960;2023-05-08T03:28:50;98697.63;;;12.16;62.48
15884;BME280;8040;50.254;10.960;2023-05-08T03:31:17;98695.00;;;12.11;62.62
15884;BME280;8040;50.254;10.960;2023-05-08T03:33:46;98730.16;;;12.53;62.05
15884;BME280;8040;50.254;10.960;2023-05-08T03:36:13;98727.53;;;12.61;61.48
15884;BME280;8040;50.254;10.960;2023-05-08T03:38:39;98695.56;;;12.53;62.12
15884;BME280;8040;50.254;10.960;2023-05-08T03:41:05;98723.41;;;12.77;61.77
15884;BME280;8040;50.254;10.960;2023-05-08T03:43:31;98707.88;;;12.78;61.24
15884;BME280;8040;50.254;10.960;2023-05-08T03:45:57;98679.63;;;12.60;60.39
15884;BME280;8040;50.254;10.960;2023-05-08T03:48:25;98717.97;;;12.77;59.99
15884;BME280;8040;50.254;10.960;2023-05-08T03:50:52;98718.97;;;12.68;60.22
15884;BME280;8040;50.254;10.960;2023-05-08T03:53:17;98738.72;;;12.87;60.21
15884;BME280;8040;50.254;10.960;2023-05-08T03:55:43;98707.34;;;12.49;60.03
15884;BME280;8040;50.254;10.960;2023-05-08T04:01:18;98734.59;;;12.62;60.75
15884;BME280;8040;50.254;10.960;2023-05-08T04:03:53;98743.09;;;12.42;60.46
15884;BME280;8040;50.254;10.960;2023-05-08T04:06:43;98711.63;;;11.91;61.36
15884;BME280;8040;50.254;10.960;2023-05-08T04:09:19;98748.84;;;12.09;61.72
15884;BME280;8040;50.254;10.960;2023-05-08T04:12:02;98741.78;;;11.94;62.28
15884;BME280;8040;50.254;10.960;2023-05-08T04:14:51;98748.84;;;12.09;61.87
15884;BME280;8040;50.254;10.960;2023-05-08T04:17:27;98722.31;;;11.69;62.01
15884;BME280;8040;50.254;10.960;2023-05-08T04:20:00;98762.47;;;11.72;62.39
15884;BME280;8040;50.254;10.960;2023-05-08T04:22:28;98687.88;;;11.27;62.64
15884;BME280;8040;50.254;10.960;2023-05-08T04:24:57;98765.69;;;11.92;62.42
15884;BME280;8040;50.254;10.960;2023-05-08T04:27:24;98762.69;;;11.94;62.19
15884;BME280;8040;50.254;10.960;2023-05-08T04:29:49;98695.03;;;11.55;61.36
15884;BME280;8040;50.254;10.960;2023-05-08T04:32:15;98753.16;;;11.96;61.27
15884;BME280;8040;50.254;10.960;2023-05-08T04:34:41;98776.31;;;12.26;61.27
15884;BME280;8040;50.254;10.960;2023-05-08T04:37:06;98743.38;;;11.95;61.27
15884;BME280;8040;50.254;10.960;2023-05-08T04:39:32;98757.75;;;12.14;61.12
15884;BME280;8040;50.254;10.960;2023-05-08T04:41:57;98770.09;;;12.39;60.69
15884;BME280;8040;50.254;10.960;2023-05-08T04:44:27;98772.88;;;12.20;60.53
15884;BME280;8040;50.254;10.960;2023-05-08T04:46:53;98762.06;;;12.15;60.92
15884;BME280;8040;50.254;10.960;2023-05-08T04:49:53;98783.91;;;12.29;60.35
15884;BME280;8040;50.254;10.960;2023-05-08T04:52:18;98779.50;;;12.14;60.44
15884;BME280;8040;50.254;10.960;2023-05-08T04:54:44;98792.00;;;12.15;60.72
15884;BME280;8040;50.254;10.960;2023-05-08T04:57:10;98788.22;;;12.30;60.84
15884;BME280;8040;50.254;10.960;2023-05-08T04:59:35;98772.53;;;12.40;60.87
15884;BME280;8040;50.254;10.960;2023-05-08T05:02:01;98790.44;;;12.60;60.08
15884;BME280;8040;50.254;10.960;2023-05-08T05:04:27;98728.97;;;12.27;59.57
15884;BME280;8040;50.254;10.960;2023-05-08T05:06:52;98767.53;;;12.61;59.28
15884;BME280;8040;50.254;10.960;2023-05-08T05:09:18;98788.31;;;12.70;59.17
15884;BME280;8040;50.254;10.960;2023-05-08T05:11:43;98772.88;;;12.52;59.18
15884;BME280;8040;50.254;10.960;2023-05-08T05:14:08;98745.91;;;12.24;58.97
15884;BME280;8040;50.254;10.960;2023-05-08T05:16:34;98808.09;;;12.76;59.37
15884;BME280;8040;50.254;10.960;2023-05-08T05:18:59;98764.22;;;12.50;59.02
15884;BME280;8040;50.254;10.960;2023-05-08T05:21:25;98780.88;;;12.62;58.87
15884;BME280;8040;50.254;10.960;2023-05-08T05:23:52;98765.31;;;12.63;58.83
15884;BME280;8040;50.254;10.960;2023-05-08T05:26:17;98797.28;;;13.03;58.67
15884;BME280;8040;50.254;10.960;2023-05-08T05:28:43;98806.25;;;13.17;58.63
15884;BME280;8040;50.254;10.960;2023-05-08T05:31:08;98746.91;;;12.87;57.83
15884;BME280;8040;50.254;10.960;2023-05-08T05:33:34;98798.72;;;12.82;57.17
15884;BME280;8040;50.254;10.960;2023-05-08T05:35:59;98774.88;;;12.60;58.10
15884;BME280;8040;50.254;10.960;2023-05-08T05:38:25;98810.53;;;12.91;58.01
15884;BME280;8040;50.254;10.960;2023-05-08T05:40:50;98798.50;;;12.65;57.56
15884;BME280;8040;50.254;10.960;2023-05-08T05:43:15;98782.91;;;12.38;58.35
15884;BME280;8040;50.254;10.960;2023-05-08T05:45:41;98763.56;;;12.08;58.93
15884;BME280;8040;50.254;10.960;2023-05-08T05:48:06;98803.94;;;12.33;59.04
15884;BME280;8040;50.254;10.960;2023-05-08T05:50:32;98817.06;;;12.76;59.03
15884;BME280;8040;50.254;10.960;2023-05-08T05:52:57;98765.16;;;12.73;58.57
15884;BME280;8040;50.254;10.960;2023-05-08T05:55:48;98818.03;;;12.99;57.35
15884;BME280;8040;50.254;10.960;2023-05-08T05:58:14;98770.19;;;12.66;57.64
15884;BME280;8040;50.254;10.960;2023-05-08T06:00:42;98778.06;;;12.94;58.16
15884;BME280;8040;50.254;10.960;2023-05-08T06:03:07;98764.19;;;12.96;57.36
15884;BME280;8040;50.254;10.960;2023-05-08T06:05:36;98772.16;;;13.19;57.28
15884;BME280;8040;50.254;10.960;2023-05-08T06:08:01;98800.81;;;13.44;56.22
15884;BME280;8040;50.254;10.960;2023-05-08T06:10:32;98783.94;;;13.42;56.19
15884;BME280;8040;50.254;10.960;2023-05-08T06:12:58;98808.84;;;13.62;55.79
15884;BME280;8040;50.254;10.960;2023-05-08T06:15:23;98812.16;;;13.73;55.57
15884;BME280;8040;50.254;10.960;2023-05-08T06:18:07;98816.59;;;13.82;56.00
15884;BME280;8040;50.254;10.960;2023-05-08T06:20:32;98744.00;;;13.37;55.15
15884;BME280;8040;50.254;10.960;2023-05-08T06:22:58;98799.53;;;13.77;54.85
15884;BME280;8040;50.254;10.960;2023-05-08T06:25:23;98809.56;;;14.03;55.37
15884;BME280;8040;50.254;10.960;2023-05-08T06:27:49;98775.31;;;14.11;54.91
15884;BME280;8040;50.254;10.960;2023-05-08T06:30:17;98795.13;;;14.03;53.72
15884;BME280;8040;50.254;10.960;2023-05-08T06:32:43;98763.72;;;13.92;53.61
15884;BME280;8040;50.254;10.960;2023-05-08T06:35:08;98746.81;;;13.81;53.51
15884;BME280;8040;50.254;10.960;2023-05-08T06:37:34;98819.72;;;14.25;54.00
15884;BME280;8040;50.254;10.960;2023-05-08T06:40:00;98784.72;;;14.05;54.22
15884;BME280;8040;50.254;10.960;2023-05-08T06:42:47;98826.25;;;14.59;54.28
15884;BME280;8040;50.254;10.960;2023-05-08T06:45:12;98825.19;;;14.69;53.45
15884;BME280;8040;50.254;10.960;2023-05-08T06:47:38;98804.38;;;14.15;53.26
15884;BME280;8040;50.254;10.960;2023-05-08T06:50:04;98820.09;;;14.32;53.88
15884;BME280;8040;50.254;10.960;2023-05-08T06:52:29;98826.00;;;14.12;54.11
15884;BME280;8040;50.254;10.960;2023-05-08T06:54:54;98826.69;;;13.82;54.71
15884;BME280;8040;50.254;10.960;2023-05-08T06:57:26;98820.47;;;13.54;55.62
15884;BME280;8040;50.254;10.960;2023-05-08T06:59:53;98809.94;;;13.75;55.94
15884;BME280;8040;50.254;10.960;2023-05-08T07:02:18;98775.34;;;13.62;55.44
15884;BME280;8040;50.254;10.960;2023-05-08T07:04:44;98796.53;;;13.65;55.43
15884;BME280;8040;50.254;10.960;2023-05-08T07:07:09;98814.94;;;13.95;55.06
15884;BME280;8040;50.254;10.960;2023-05-08T07:09:35;98794.34;;;13.89;55.46
15884;BME280;8040;50.254;10.960;2023-05-08T07:12:01;98790.41;;;13.95;55.05
15884;BME280;8040;50.254;10.960;2023-05-08T07:14:26;98807.59;;;14.31;55.46
15884;BME280;8040;50.254;10.960;2023-05-08T07:16:52;98815.97;;;14.56;54.17
15884;BME280;8040;50.254;10.960;2023-05-08T07:19:18;98823.00;;;14.79;53.77
15884;BME280;8040;50.254;10.960;2023-05-08T07:21:59;98785.44;;;14.85;53.48
15884;BME280;8040;50.254;10.960;2023-05-08T07:24:24;98770.50;;;14.82;52.23
15884;BME280;8040;50.254;10.960;2023-05-08T07:26:51;98789.69;;;15.08;52.03
15884;BME280;8040;50.254;10.960;2023-05-08T07:29:17;98777.34;;;15.10;51.94
15884;BME280;8040;50.254;10.960;2023-05-08T07:31:42;98822.91;;;15.32;50.85
15884;BME280;8040;50.254;10.960;2023-05-08T07:34:09;98794.53;;;15.02;51.17
15884;BME280;8040;50.254;10.960;2023-05-08T07:36:35;98825.38;;;15.03;51.50
15884;BME280;8040;50.254;10.960;2023-05-08T07:39:00;98805.22;;;14.60;52.26
15884;BME280;8040;50.254;10.960;2023-05-08T07:41:26;98817.31;;;14.98;52.83
15884;BME280;8040;50.254;10.960;2023-05-08T07:43:51;98800.41;;;15.26;52.48
15884;BME280;8040;50.254;10.960;2023-05-08T07:46:17;98810.94;;;15.50;51.08
15884;BME280;8040;50.254;10.960;2023-05-08T07:48:43;98821.97;;;15.75;50.58
15884;BME280;8040;50.254;10.960;2023-05-08T07:51:08;98796.06;;;15.25;50.43
15884;BME280;8040;50.254;10.960;2023-05-08T07:53:35;98818.97;;;15.38;50.70
15884;BME280;8040;50.254;10.960;2023-05-08T07:56:04;98793.63;;;15.24;50.79
15884;BME280;8040;50.254;10.960;2023-05-08T07:58:42;98797.72;;;15.35;50.61
15884;BME280;8040;50.254;10.960;2023-05-08T08:01:10;98814.84;;;15.57;50.49
15884;BME280;8040;50.254;10.960;2023-05-08T08:03:36;98800.09;;;15.75;50.56
15884;BME280;8040;50.254;10.960;2023-05-08T08:06:29;98820.53;;;15.30;50.52
15884;BME280;8040;50.254;10.960;2023-05-08T08:09:15;98772.75;;;14.58;51.48
15884;BME280;8040;50.254;10.960;2023-05-08T08:11:41;98831.94;;;14.71;52.47
15884;BME280;8040;50.254;10.960;2023-05-08T08:14:06;98797.53;;;14.62;52.57
15884;BME280;8040;50.254;10.960;2023-05-08T08:16:32;98818.94;;;14.99;52.54
15884;BME280;8040;50.254;10.960;2023-05-08T08:18:57;98807.44;;;15.19;52.01
15884;BME280;8040;50.254;10.960;2023-05-08T08:21:26;98800.56;;;15.30;51.53
15884;BME280;8040;50.254;10.960;2023-05-08T08:23:53;98795.41;;;15.28;51.71
15884;BME280;8040;50.254;10.960;2023-05-08T08:26:18;98805.53;;;15.19;51.18
15884;BME280;8040;50.254;10.960;2023-05-08T08:28:43;98797.19;;;15.24;51.40
15884;BME280;8040;50.254;10.960;2023-05-08T08:31:10;98786.97;;;15.38;51.82
15884;BME280;8040;50.254;10.960;2023-05-08T08:33:35;98785.00;;;15.30;51.38
15884;BME280;8040;50.254;10.960;2023-05-08T08:36:02;98791.53;;;15.68;51.82
15884;BME280;8040;50.254;10.960;2023-05-08T08:38:28;98796.56;;;16.00;50.43
15884;BME280;8040;50.254;10.960;2023-05-08T08:40:53;98765.31;;;15.59;49.87
15884;BME280;8040;50.254;10.960;2023-05-08T08:43:18;98800.72;;;15.64;50.51
15884;BME280;8040;50.254;10.960;2023-05-08T08:45:44;98780.22;;;15.36;51.38
15884;BME280;8040;50.254;10.960;2023-05-08T08:48:10;98792.69;;;15.76;51.11
15884;BME280;8040;50.254;10.960;2023-05-08T08:50:41;98772.44;;;15.94;50.86
15884;BME280;8040;50.254;10.960;2023-05-08T08:53:20;98757.78;;;16.23;49.84
15884;BME280;8040;50.254;10.960;2023-05-08T08:55:49;98808.34;;;16.51;49.49
15884;BME280;8040;50.254;10.960;2023-05-08T08:58:20;98754.69;;;16.33;49.57
15884;BME280;8040;50.254;10.960;2023-05-08T09:00:48;98791.44;;;16.49;49.39
15884;BME280;8040;50.254;10.960;2023-05-08T09:03:14;98777.44;;;16.51;49.40
15884;BME280;8040;50.254;10.960;2023-05-08T09:05:40;98801.88;;;16.56;49.01
15884;BME280;8040;50.254;10.960;2023-05-08T09:08:05;98790.00;;;16.52;49.66
15884;BME280;8040;50.254;10.960;2023-05-08T09:10:34;98785.78;;;16.63;49.77
15884;BME280;8040;50.254;10.960;2023-05-08T09:13:03;98795.06;;;16.87;49.58
15884;BME280;8040;50.254;10.960;2023-05-08T09:15:30;98781.78;;;17.06;48.75
15884;BME280;8040;50.254;10.960;2023-05-08T09:17:57;98783.31;;;17.24;48.56
15884;BME280;8040;50.254;10.960;2023-05-08T09:20:23;98787.09;;;17.03;48.46
15884;BME280;8040;50.254;10.960;2023-05-08T09:22:50;98788.16;;;16.81;48.73
15884;BME280;8040;50.254;10.960;2023-05-08T09:25:16;98775.03;;;16.41;49.15
15884;BME280;8040;50.254;10.960;2023-05-08T09:28:14;98795.63;;;16.55;50.11
15884;BME280;8040;50.254;10.960;2023-05-08T09:30:54;98764.16;;;16.70;49.58
15884;BME280;8040;50.254;10.960;2023-05-08T09:33:24;98787.03;;;17.20;48.74
15884;BME280;8040;50.254;10.960;2023-05-08T09:35:50;98778.25;;;17.35;48.20
15884;BME280;8040;50.254;10.960;2023-05-08T09:41:55;98791.25;;;17.55;47.37
15884;BME280;8040;50.254;10.960;2023-05-08T09:44:21;98761.38;;;17.62;46.97
15884;BME280;8040;50.254;10.960;2023-05-08T09:46:47;98765.94;;;17.78;46.97
15884;BME280;8040;50.254;10.960;2023-05-08T09:49:16;98785.16;;;17.49;46.90
15884;BME280;8040;50.254;10.960;2023-05-08T09:51:51;98771.47;;;17.32;47.25
15884;BME280;8040;50.254;10.960;2023-05-08T09:54:19;98769.03;;;17.10;47.25
15884;BME280;8040;50.254;10.960;2023-05-08T09:56:45;98779.44;;;17.25;47.78
15884;BME280;8040;50.254;10.960;2023-05-08T09:59:35;98779.94;;;17.56;47.62
15884;BME280;8040;50.254;10.960;2023-05-08T10:02:09;98789.75;;;17.86;47.22
15884;BME280;8040;50.254;10.960;2023-05-08T10:04:40;98756.56;;;17.79;47.00
15884;BME280;8040;50.254;10.960;2023-05-08T10:07:08;98788.03;;;18.02;46.70
15884;BME280;8040;50.254;10.960;2023-05-08T10:09:33;98774.50;;;17.97;46.81
15884;BME280;8040;50.254;10.960;2023-05-08T10:11:59;98788.53;;;17.75;46.56
15884;BME280;8040;50.254;10.960;2023-05-08T10:14:24;98765.94;;;17.49;46.98
15884;BME280;8040;50.254;10.960;2023-05-08T10:16:51;98782.78;;;17.68;47.20
15884;BME280;8040;50.254;10.960;2023-05-08T10:19:19;98772.81;;;17.84;47.05
15884;BME280;8040;50.254;10.960;2023-05-08T10:21:46;98766.72;;;17.99;46.44
15884;BME280;8040;50.254;10.960;2023-05-08T10:24:21;98766.06;;;18.23;46.53
15884;BME280;8040;50.254;10.960;2023-05-08T10:27:12;98775.72;;;18.49;45.94
15884;BME280;8040;50.254;10.960;2023-05-08T10:29:55;98772.00;;;18.78;45.71
15884;BME280;8040;50.254;10.960;2023-05-08T10:32:31;98774.44;;;19.03;44.54
15884;BME280;8040;50.254;10.960;2023-05-08T10:35:00;98755.88;;;18.88;44.56
15884;BME280;8040;50.254;10.960;2023-05-08T10:37:28;98746.84;;;19.00;44.62
15884;BME280;8040;50.254;10.960;2023-05-08T10:40:06;98761.50;;;19.04;43.93
15884;BME280;8040;50.254;10.960;2023-05-08T10:42:33;98761.97;;;19.06;44.98
15884;BME280;8040;50.254;10.960;2023-05-08T10:45:03;98741.47;;;19.15;44.23
15884;BME280;8040;50.254;10.960;2023-05-08T10:53:44;98768.59;;;18.93;44.31
15884;BME280;8040;50.254;10.960;2023-05-08T10:56:13;98742.28;;;19.04;44.29
15884;BME280;8040;50.254;10.960;2023-05-08T10:58:38;98747.94;;;19.31;44.40
15884;BME280;8040;50.254;10.960;2023-05-08T11:03:53;98774.94;;;19.17;43.27
15884;BME280;8040;50.254;10.960;2023-05-08T11:06:42;98771.47;;;19.08;43.35
15884;BME280;8040;50.254;10.960;2023-05-08T11:09:14;98766.03;;;19.32;43.00
15884;BME280;8040;50.254;10.960;2023-05-08T11:12:35;98724.72;;;18.96;42.23
15884;BME280;8040;50.254;10.960;2023-05-08T11:14:40;98778.53;;;19.30;43.07
15884;BME280;8040;50.254;10.960;2023-05-08T11:20:12;98762.25;;;19.37;43.79
15884;BME280;8040;50.254;10.960;2023-05-08T11:22:46;98711.03;;;19.20;43.83
15884;BME280;8040;50.254;10.960;2023-05-08T11:25:11;98767.59;;;19.81;43.90
15884;BME280;8040;50.254;10.960;2023-05-08T11:27:39;98753.81;;;19.93;43.48
15884;BME280;8040;50.254;10.960;2023-05-08T11:38:26;98755.44;;;18.98;43.32
15884;BME280;8040;50.254;10.960;2023-05-08T11:41:06;98748.09;;;19.02;43.29
15884;BME280;8040;50.254;10.960;2023-05-08T11:46:04;98760.63;;;19.48;42.83
15884;BME280;8040;50.254;10.960;2023-05-08T11:48:37;98752.16;;;19.41;42.50
15884;BME280;8040;50.254;10.960;2023-05-08T11:54:14;98746.31;;;19.30;42.79
15884;BME280;8040;50.254;10.960;2023-05-08T11:56:40;98757.00;;;19.56;42.61
15884;BME280;8040;50.254;10.960;2023-05-08T12:02:52;98753.41;;;19.79;41.45
15884;BME280;8040;50.254;10.960;2023-05-08T12:05:25;98746.31;;;19.42;41.86
15884;BME280;8040;50.254;10.960;2023-05-08T12:07:51;98732.22;;;19.56;42.22
15884;BME280;8040;50.254;10.960;2023-05-08T12:10:16;98694.69;;;19.63;41.92
15884;BME280;8040;50.254;10.960;2023-05-08T12:12:43;98761.16;;;20.13;41.28
15884;BME280;8040;50.254;10.960;2023-05-08T12:15:11;98751.88;;;20.06;40.91
15884;BME280;8040;50.254;10.960;2023-05-08T12:17:37;98708.44;;;19.63;40.79
15884;BME280;8040;50.254;10.960;2023-05-08T12:20:16;98740.38;;;19.92;41.57
15884;BME280;8040;50.254;10.960;2023-05-08T12:22:49;98714.38;;;19.89;41.48
15884;BME280;8040;50.254;10.960;2023-05-08T12:25:19;98731.97;;;20.12;41.52
15884;BME280;8040;50.254;10.960;2023-05-08T12:27:45;98757.41;;;20.33;41.33
15884;BME280;8040;50.254;10.960;2023-05-08T12:30:12;98735.34;;;20.06;40.26
15884;BME280;8040;50.254;10.960;2023-05-08T12:32:42;98711.81;;;19.57;39.77
15884;BME280;8040;50.254;10.960;2023-05-08T12:35:09;98717.22;;;19.41;39.55
15884;BME280;8040;50.254;10.960;2023-05-08T12:37:35;98729.72;;;19.27;39.17
15884;BME280;8040;50.254;10.960;2023-05-08T12:40:01;98740.34;;;19.16;37.60
15884;BME280;8040;50.254;10.960;2023-05-08T12:42:47;98733.34;;;19.31;37.33
15884;BME280;8040;50.254;10.960;2023-05-08T12:45:18;98739.44;;;19.60;36.49
15884;BME280;8040;50.254;10.960;2023-05-08T12:47:51;98744.91;;;19.84;37.85
15884;BME280;8040;50.254;10.960;2023-05-08T12:50:19;98720.97;;;20.00;38.36
15884;BME280;8040;50.254;10.960;2023-05-08T12:52:46;98711.06;;;20.23;38.76
15884;BME280;8040;50.254;10.960;2023-05-08T12:55:25;98735.53;;;20.68;38.89
15884;BME280;8040;50.254;10.960;2023-05-08T12:58:24;98743.03;;;20.98;38.10
15884;BME280;8040;50.254;10.960;2023-05-08T13:00:52;98739.84;;;21.12;37.82
15884;BME280;8040;50.254;10.960;2023-05-08T13:03:25;98709.66;;;21.19;37.49
15884;BME280;8040;50.254;10.960;2023-05-08T13:05:51;98724.34;;;21.38;35.38
15884;BME280;8040;50.254;10.960;2023-05-08T13:08:17;98686.19;;;21.09;34.27
15884;BME280;8040;50.254;10.960;2023-05-08T13:13:46;98695.09;;;21.18;35.26
15884;BME280;8040;50.254;10.960;2023-05-08T13:16:11;98703.19;;;21.27;35.66
15884;BME280;8040;50.254;10.960;2023-05-08T13:18:36;98710.28;;;20.81;35.94
15884;BME280;8040;50.254;10.960;2023-05-08T13:21:02;98698.47;;;20.96;36.26
15884;BME280;8040;50.254;10.960;2023-05-08T13:23:27;98700.16;;;21.16;36.15
15884;BME280;8040;50.254;10.960;2023-05-08T13:25:54;98710.72;;;21.45;35.49
15884;BME280;8040;50.254;10.960;2023-05-08T13:28:19;98706.16;;;21.53;34.88
15884;BME280;8040;50.254;10.960;2023-05-08T13:30:46;98683.00;;;21.57;34.03
15884;BME280;8040;50.254;10.960;2023-05-08T13:33:11;98704.06;;;21.65;34.12
15884;BME280;8040;50.254;10.960;2023-05-08T13:35:37;98677.53;;;21.61;34.42
15884;BME280;8040;50.254;10.960;2023-05-08T13:38:36;98702.28;;;21.73;35.63
15884;BME280;8040;50.254;10.960;2023-05-08T13:41:02;98701.66;;;21.79;35.85
15884;BME280;8040;50.254;10.960;2023-05-08T13:43:27;98630.16;;;21.40;36.47
15884;BME280;8040;50.254;10.960;2023-05-08T13:45:53;98659.81;;;21.62;36.53
15884;BME280;8040;50.254;10.960;2023-05-08T13:48:18;98693.00;;;21.81;36.10
15884;BME280;8040;50.254;10.960;2023-05-08T13:50:44;98657.50;;;21.64;36.21
15884;BME280;8040;50.254;10.960;2023-05-08T13:53:09;98678.31;;;21.42;36.58
15884;BME280;8040;50.254;10.960;2023-05-08T13:55:35;98685.13;;;21.29;37.52
15884;BME280;8040;50.254;10.960;2023-05-08T13:58:01;98677.81;;;21.21;37.33
15884;BME280;8040;50.254;10.960;2023-05-08T14:00:26;98683.31;;;21.21;37.31
15884;BME280;8040;50.254;10.960;2023-05-08T14:02:52;98637.94;;;20.72;37.83
15884;BME280;8040;50.254;10.960;2023-05-08T14:05:17;98655.41;;;20.92;38.28
15884;BME280;8040;50.254;10.960;2023-05-08T14:07:42;98684.16;;;20.91;37.82
15884;BME280;8040;50.254;10.960;2023-05-08T14:10:09;98674.16;;;20.86;37.97